Time;durP1;ratioP1;P1;durP2;ratioP2;P2;SDS_P1;SDS_P2;PMS_P1;PMS_P2;Temp;Humidity;BMP_temperature;BMP_pressure;BME280_temperature;BME280_humidity;BME280_pressure;Samples;Min_cycle;Max_cycle;Signal;HPM_P1;HPM_P2
2023/01/16 00:06:21;;;;;;;101.90;43.08;;;5.10;99.90;;;;;;5551686;23;20063;-81
2023/01/16 00:08:48;;;;;;;;;;;5.10;99.90;;;;;;4980370;28;20031;-84
2023/01/16 00:11:14;;;;;;;104.07;44.05;;;5.10;99.90;;;;;;4963947;28;19910;-84
2023/01/16 00:13:40;;;;;;;;;;;5.20;99.90;;;;;;4980016;28;20042;-83
2023/01/16 00:16:07;;;;;;;100.03;42.85;;;5.10;99.90;;;;;;4980022;28;19894;-83
2023/01/16 00:18:33;;;;;;;115.85;46.47;;;5.10;99.90;;;;;;4980133;29;20028;-85
2023/01/16 00:20:58;;;;;;;;;;;5.20;99.90;;;;;;4963676;28;20051;-84
2023/01/16 00:23:24;;;;;;;99.45;42.15;;;5.20;99.90;;;;;;4980190;28;20415;-84
2023/01/16 00:25:50;;;;;;;;;;;5.10;99.90;;;;;;4963473;28;20019;-85
2023/01/16 00:28:16;;;;;;;105.65;44.08;;;5.10;99.90;;;;;;4980335;29;19984;-84
2023/01/16 00:30:42;;;;;;;;;;;5.00;99.90;;;;;;4980643;28;20031;-83
2023/01/16 00:33:08;;;;;;;118.68;48.70;;;5.10;99.90;;;;;;4981510;28;19919;-81
2023/01/16 00:35:35;;;;;;;179.48;55.42;;;5.00;99.90;;;;;;4968297;28;20012;-81
2023/01/16 00:38:01;;;;;;;132.23;53.63;;;5.00;99.90;;;;;;4984772;28;20019;-81
2023/01/16 00:40:26;;;;;;;;;;;5.00;99.90;;;;;;4968300;28;20013;-84
2023/01/16 00:42:52;;;;;;;141.55;54.63;;;4.90;99.90;;;;;;4984709;28;19895;-81
2023/01/16 00:45:18;;;;;;;;;;;5.00;99.90;;;;;;4984652;28;20011;-80
2023/01/16 06:52:41;;;;;;;15.95;9.75;;;4.90;99.90;;;;;;6065839;23;20262;31
2023/01/16 06:55:08;;;;;;;16.77;10.32;;;4.90;99.90;;;;;;4922027;29;20024;-83
2023/01/16 06:57:36;;;;;;;21.92;12.85;;;4.70;99.90;;;;;;4924300;29;20044;-81
2023/01/16 07:00:03;;;;;;;24.05;13.40;;;4.80;99.90;;;;;;4924539;29;20089;-82
2023/01/16 07:02:29;;;;;;;19.38;12.05;;;4.80;99.90;;;;;;4923590;29;20037;-81
2023/01/16 07:04:55;;;;;;;;;;;4.70;99.90;;;;;;4924047;29;20012;-81
2023/01/16 07:07:21;;;;;;;29.38;15.77;;;4.60;99.90;;;;;;4924430;29;19943;-80
2023/01/16 07:09:46;;;;;;;;;;;4.50;99.90;;;;;;4924843;29;20020;-81
2023/01/16 07:12:12;;;;;;;25.50;14.60;;;4.50;99.90;;;;;;4924486;29;19895;-82
2023/01/16 08:00:37;;;;;;;30.40;17.27;;;4.80;99.90;;;;;;4944319;27;19946;-81
2023/01/16 08:03:03;;;;;;;;;;;4.90;99.90;;;;;;4945773;29;20023;-79
2023/01/16 08:05:31;;;;;;;31.30;17.02;;;4.80;99.90;;;;;;4945550;29;19895;-79
2023/01/16 08:07:57;;;;;;;27.83;15.60;;;4.90;99.90;;;;;;4961246;29;20136;-83
2023/01/16 08:10:23;;;;;;;;;;;5.00;99.90;;;;;;4962094;29;20051;-78
2023/01/16 08:12:48;;;;;;;36.15;21.27;;;4.90;99.90;;;;;;4961628;29;19942;-79
2023/01/16 08:15:14;;;;;;;;;;;4.90;99.90;;;;;;4945855;29;20012;-80
2023/01/16 08:17:40;;;;;;;48.83;28.73;;;4.90;99.90;;;;;;4961362;29;19902;-80
2023/01/16 08:20:06;;;;;;;;;;;4.80;99.90;;;;;;4962049;29;20015;-81
2023/01/16 08:22:32;;;;;;;40.28;24.40;;;4.90;99.90;;;;;;4961807;29;19902;-80
2023/01/16 08:24:58;;;;;;;;;;;5.00;99.90;;;;;;4962030;29;20076;-80
2023/01/16 08:27:24;;;;;;;43.33;26.20;;;5.00;99.90;;;;;;4961635;29;19895;-81
2023/01/16 08:29:50;;;;;;;40.60;23.73;;;5.00;99.90;;;;;;4961466;29;20047;-80
2023/01/16 08:32:16;;;;;;;;;;;5.00;99.90;;;;;;4961888;29;20011;-82
2023/01/16 08:34:42;;;;;;;45.38;25.65;;;5.20;99.90;;;;;;4961636;29;19922;-80
2023/01/16 08:37:10;;;;;;;40.75;22.02;;;5.20;99.90;;;;;;4960950;29;20024;-83
2023/01/16 08:39:36;;;;;;;41.55;23.67;;;5.10;99.90;;;;;;4945185;29;20012;-80
2023/01/16 09:50:31;;;;;;;32.55;15.95;;;5.20;99.90;;;;;;4985710;23;20079;-84
2023/01/16 09:58:38;;;;;;;39.38;19.08;;;5.30;99.90;;;;;;4980616;29;20035;-84
2023/01/16 10:01:31;;;;;;;38.97;16.58;;;5.20;99.90;;;;;;4964118;29;20484;-84
2023/01/16 10:04:25;;;;;;;35.45;15.43;;;5.30;99.90;;;;;;4980668;29;20011;-84
2023/01/16 10:07:01;;;;;;;33.78;15.85;;;5.30;99.90;;;;;;4962937;29;20034;-84
2023/01/16 10:09:44;;;;;;;34.70;16.85;;;5.20;99.90;;;;;;4981120;29;20011;-84
2023/01/16 10:12:11;;;;;;;32.60;15.98;;;5.20;99.90;;;;;;4981154;28;20059;-84
2023/01/16 10:15:02;;;;;;;45.83;19.20;;;5.20;99.90;;;;;;4979575;29;20026;-84
2023/01/16 10:18:16;;;;;;;33.05;14.65;;;5.10;99.90;;;;;;4981070;29;20032;-85
2023/01/16 10:21:01;;;;;;;37.05;17.60;;;5.10;99.90;;;;;;4964033;29;20011;-84
2023/01/16 10:23:36;;;;;;;52.33;19.63;;;5.10;99.90;;;;;;4964271;29;20043;-84
2023/01/16 10:26:27;;;;;;;40.17;17.95;;;5.00;99.90;;;;;;4980581;28;20027;-85
2023/01/16 10:29:19;;;;;;;34.22;15.93;;;5.00;99.90;;;;;;4981880;28;20039;-85
2023/01/16 10:32:02;;;;;;;50.92;17.48;;;4.90;99.90;;;;;;4964908;29;20023;-84
2023/01/16 10:34:46;;;;;;;49.72;19.65;;;4.30;99.90;;;;;;4981371;28;20091;-83
2023/01/16 10:37:12;;;;;;;63.47;22.90;;;5.00;99.90;;;;;;4975307;28;20039;-85
2023/01/16 12:09:36;;;;;;;145.23;36.42;;;4.70;99.90;;;;;;5847105;23;21219;-76
2023/01/16 12:15:22;;;;;;;82.75;33.58;;;4.80;99.90;;;;;;4961641;29;20026;-84
2023/01/16 12:17:48;;;;;;;74.65;29.73;;;4.80;99.90;;;;;;4960963;29;20047;-82
2023/01/16 12:20:13;;;;;;;;;;;4.70;99.90;;;;;;4961459;29;20027;-84
2023/01/16 12:22:56;;;;;;;72.53;26.00;;;4.80;99.90;;;;;;4961520;29;19922;-84
2023/01/16 12:25:54;;;;;;;55.65;21.85;;;4.70;99.90;;;;;;4960686;29;20030;-82
2023/01/16 12:28:20;;;;;;;;;;;4.80;99.90;;;;;;4960757;29;20016;-82
2023/01/16 12:31:07;;;;;;;55.45;26.00;;;4.90;99.90;;;;;;4960506;29;19970;-83
2023/01/16 12:34:07;;;;;;;113.70;48.72;;;4.80;99.90;;;;;;4960926;29;20019;-83
2023/01/16 12:36:40;;;;;;;62.03;28.38;;;4.80;99.90;;;;;;4938846;29;20055;-82
2023/01/16 12:39:36;;;;;;;65.47;30.83;;;4.70;99.90;;;;;;4942106;29;20059;-84
2023/01/16 12:44:54;;;;;;;66.80;30.73;;;4.70;99.90;;;;;;4942244;29;20100;-84
2023/01/16 12:47:29;;;;;;;60.58;29.20;;;4.80;99.90;;;;;;4942137;29;20030;-83
2023/01/16 12:50:13;;;;;;;59.72;30.20;;;4.80;99.90;;;;;;4941615;29;20039;-84
2023/01/16 12:53:00;;;;;;;64.47;32.35;;;4.70;99.90;;;;;;4941648;29;20024;-84
2023/01/16 12:55:48;;;;;;;;;;;4.70;99.90;;;;;;4942633;29;20013;-84
2023/01/16 12:58:18;;;;;;;57.78;30.13;;;4.70;99.90;;;;;;4941686;29;19895;-81
2023/01/16 13:01:06;;;;;;;61.38;31.52;;;4.70;99.90;;;;;;4941449;29;20021;-83
2023/01/16 13:03:39;;;;;;;60.92;33.47;;;4.70;99.90;;;;;;4941649;29;20052;-82
2023/01/16 13:06:09;;;;;;;57.25;30.20;;;4.70;99.90;;;;;;4941982;29;20024;-82
2023/01/16 13:08:52;;;;;;;58.92;32.45;;;4.70;99.90;;;;;;4957363;29;20068;-81
2023/01/16 13:14:11;;;;;;;54.63;29.10;;;4.60;99.90;;;;;;4942011;29;20047;-83
2023/01/16 13:16:45;;;;;;;56.35;30.02;;;4.70;99.90;;;;;;4941418;29;20019;-83
2023/01/16 13:19:20;;;;;;;52.63;30.92;;;4.70;99.90;;;;;;4941998;29;20052;-85
2023/01/16 13:21:55;;;;;;;53.17;29.17;;;4.70;99.90;;;;;;4957215;29;20047;-84
2023/01/16 13:24:30;;;;;;;43.42;26.42;;;4.70;99.90;;;;;;4941432;29;20047;-85
2023/01/16 13:27:03;;;;;;;53.20;28.83;;;4.80;99.90;;;;;;4956107;29;20032;-80
2023/01/16 13:30:07;;;;;;;57.47;32.53;;;4.80;99.90;;;;;;4941418;29;20016;-83
2023/01/16 13:32:40;;;;;;;51.47;26.63;;;4.80;99.90;;;;;;4937434;29;20044;-84
2023/01/16 13:35:20;;;;;;;58.10;31.02;;;4.70;99.90;;;;;;4956237;29;20017;-85
2023/01/16 13:37:59;;;;;;;51.72;29.48;;;4.80;99.90;;;;;;4957057;29;20016;-84
2023/01/16 13:40:41;;;;;;;59.88;30.33;;;4.80;99.90;;;;;;4942670;29;20024;-82
2023/01/16 13:46:05;;;;;;;47.53;27.58;;;4.80;99.90;;;;;;4945347;29;20051;-80
2023/01/16 13:48:37;;;;;;;51.22;27.13;;;4.80;99.90;;;;;;4945191;29;20019;-80
2023/01/16 13:51:14;;;;;;;50.63;27.55;;;4.70;99.90;;;;;;4944591;29;20028;-83
2023/01/16 13:53:52;;;;;;;65.65;33.67;;;4.70;99.90;;;;;;4960210;29;20016;-84
2023/01/16 13:56:20;;;;;;;46.67;26.58;;;4.60;99.90;;;;;;4960189;29;20036;-84
2023/01/16 13:58:54;;;;;;;47.95;26.00;;;4.70;99.90;;;;;;4960443;29;20016;-79
2023/01/16 14:01:39;;;;;;;51.90;25.55;;;4.70;99.90;;;;;;4944502;29;20012;-81
2023/01/16 14:04:19;;;;;;;60.63;30.73;;;4.70;99.90;;;;;;4945051;29;20024;-81
2023/01/16 14:10:03;;;;;;;57.92;29.38;;;4.60;99.90;;;;;;4944860;29;20055;-81
2023/01/16 14:13:12;;;;;;;59.35;29.05;;;4.50;99.90;;;;;;4944857;29;20036;-82
2023/01/16 14:18:55;;;;;;;;;;;4.60;99.90;;;;;;4944840;29;20039;-83
2023/01/16 14:21:27;;;;;;;41.67;23.35;;;4.50;99.90;;;;;;4943763;29;19895;-80
2023/01/16 14:29:25;;;;;;;47.17;25.27;;;4.50;99.90;;;;;;5710169;23;20043;-82
2023/01/16 14:32:05;;;;;;;61.33;32.13;;;4.50;99.90;;;;;;4982463;28;20047;-83
2023/01/16 15:04:12;;;;;;;37.95;19.15;;;4.20;99.90;;;;;;4981021;28;20022;-83
2023/01/16 15:06:43;;;;;;;35.50;19.15;;;4.30;99.90;;;;;;4965639;28;20019;-81
2023/01/16 15:09:17;;;;;;;54.95;27.88;;;4.30;99.90;;;;;;4981990;28;20007;-83
2023/01/16 15:12:00;;;;;;;47.03;24.73;;;4.00;99.90;;;;;;4981931;28;20023;-82
2023/01/16 15:14:26;;;;;;;52.40;28.20;;;4.30;99.90;;;;;;4981867;28;20025;-83
2023/01/16 15:23:05;;;;;;;43.92;21.33;;;4.50;99.90;;;;;;4981729;28;20054;-83
2023/01/16 15:51:24;;;;;;;59.25;30.52;;;4.30;99.90;;;;;;5516133;23;20074;-84
2023/01/16 15:53:54;;;;;;;;;;;4.40;99.90;;;;;;4978130;29;20027;-84
2023/01/16 15:56:42;;;;;;;47.33;23.45;;;4.50;99.90;;;;;;4978984;29;19948;-84
2023/01/16 15:59:28;;;;;;;43.58;21.35;;;4.40;99.90;;;;;;4978438;29;20019;-84
2023/01/16 16:02:07;;;;;;;48.38;23.83;;;4.60;99.90;;;;;;4978214;29;20023;-84
2023/01/16 16:04:34;;;;;;;50.03;26.77;;;4.50;99.90;;;;;;4978582;28;20027;-84
2023/01/16 16:07:00;;;;;;;57.03;27.17;;;4.20;99.90;;;;;;4962086;29;20027;-84
2023/01/16 16:09:27;;;;;;;48.80;26.55;;;4.40;99.90;;;;;;4978925;29;20023;-83
2023/01/16 16:11:55;;;;;;;52.88;28.48;;;4.40;99.90;;;;;;4962076;29;20091;-84
2023/01/16 16:20:39;;;;;;;53.58;26.48;;;4.50;99.90;;;;;;4979109;28;20055;-83
2023/01/16 16:23:20;;;;;;;49.00;26.25;;;4.40;99.90;;;;;;4978000;29;20003;-84
2023/01/16 16:25:59;;;;;;;67.43;32.28;;;4.40;99.90;;;;;;4961720;29;20035;-83
2023/01/16 16:28:24;;;;;;;52.80;28.67;;;4.50;99.90;;;;;;4978852;29;20031;-84
2023/01/16 16:30:55;;;;;;;;;;;4.40;99.90;;;;;;4961939;29;20034;-84
2023/01/16 16:33:21;;;;;;;42.90;23.02;;;4.30;99.90;;;;;;4977837;29;19929;-84
2023/01/16 16:35:51;;;;;;;;;;;4.40;99.90;;;;;;4978378;29;20015;-84
2023/01/16 16:38:24;;;;;;;51.00;24.60;;;4.40;99.90;;;;;;4961420;29;19895;-82
2023/01/16 16:41:08;;;;;;;61.97;32.85;;;4.50;99.90;;;;;;4978200;29;20071;-85
2023/01/16 16:43:49;;;;;;;66.20;35.45;;;4.50;99.90;;;;;;4961656;29;20039;-84
2023/01/16 16:46:24;;;;;;;41.15;22.33;;;4.40;99.90;;;;;;4977974;29;20047;-84
2023/01/16 16:48:54;;;;;;;67.72;32.20;;;4.60;99.90;;;;;;4960762;29;20027;-83
2023/01/16 16:51:31;;;;;;;51.13;28.55;;;4.60;99.90;;;;;;4961100;28;20059;-83
2023/01/16 16:53:58;;;;;;;63.45;34.95;;;4.60;99.90;;;;;;4961630;28;20027;-83
2023/01/16 16:56:29;;;;;;;59.17;30.02;;;4.50;99.90;;;;;;4980602;28;20075;-82
2023/01/16 16:58:55;;;;;;;48.45;26.52;;;4.50;99.90;;;;;;4980330;28;20033;-82
2023/01/16 17:01:24;;;;;;;64.45;33.85;;;4.60;99.90;;;;;;4980498;28;20042;-83
2023/01/16 17:03:52;;;;;;;40.30;22.65;;;4.50;99.90;;;;;;4963676;28;20027;-84
2023/01/16 17:06:25;;;;;;;34.08;19.23;;;4.60;99.90;;;;;;4980167;28;20054;-83
2023/01/16 17:08:51;;;;;;;43.10;20.98;;;4.60;99.90;;;;;;4980156;28;20018;-84
2023/01/16 17:11:16;;;;;;;;;;;4.70;99.90;;;;;;4980501;28;20039;-81
2023/01/16 17:13:42;;;;;;;42.63;19.67;;;4.60;99.90;;;;;;4979965;28;19894;-84
2023/01/16 17:16:14;;;;;;;;;;;4.80;99.90;;;;;;4982716;28;20022;-82
2023/01/16 17:18:40;;;;;;;33.95;19.63;;;4.70;99.90;;;;;;4983966;28;19894;-82
2023/01/16 17:21:05;;;;;;;;;;;4.70;99.90;;;;;;4984351;28;20067;-82
2023/01/16 17:23:31;;;;;;;30.98;17.23;;;4.70;99.90;;;;;;4967037;29;19933;-82
2023/01/16 17:25:57;;;;;;;;;;;4.70;99.90;;;;;;4984021;28;20015;-81
2023/01/16 17:28:24;;;;;;;38.63;17.40;;;4.80;99.90;;;;;;4967232;28;19911;-83
2023/01/16 17:30:50;;;;;;;34.38;18.17;;;4.80;99.90;;;;;;4966943;28;20034;-83
2023/01/16 17:33:18;;;;;;;35.13;20.90;;;4.70;99.90;;;;;;4983689;28;20015;-81
2023/01/16 17:36:09;;;;;;;37.75;20.30;;;4.90;99.90;;;;;;4967118;29;20011;-82
2023/01/16 17:38:41;;;;;;;43.50;21.88;;;4.70;99.90;;;;;;4983220;28;20095;-81
2023/01/16 17:45:51;;;;;;;51.60;29.50;;;4.80;99.90;;;;;;4982776;28;20011;-83
2023/01/16 17:47:07;;;;;;;58.33;30.00;;;4.70;99.90;;;;;;4981434;28;20043;-83
2023/01/16 17:50:20;;;;;;;69.03;31.15;;;4.80;99.90;;;;;;4981286;29;20011;-83
2023/01/16 17:52:19;;;;;;;61.85;30.70;;;4.80;99.90;;;;;;4980732;28;20055;-82
2023/01/16 17:57:31;;;;;;;53.50;26.38;;;4.70;99.90;;;;;;4981516;29;20075;-84
2023/01/16 17:59:58;;;;;;;54.00;26.77;;;4.70;99.90;;;;;;4980698;29;20011;-84
2023/01/16 18:02:24;;;;;;;58.95;28.20;;;4.80;99.90;;;;;;4964203;29;20035;-82
2023/01/16 18:04:50;;;;;;;59.72;29.98;;;4.80;99.90;;;;;;4965015;29;20107;-83
2023/01/16 18:07:16;;;;;;;;;;;4.80;99.90;;;;;;4965872;29;20015;-83
2023/01/16 18:09:42;;;;;;;55.45;27.83;;;4.70;99.90;;;;;;4983078;28;19945;-82
2023/01/16 18:17:40;;;;;;;45.28;23.83;;;4.80;99.90;;;;;;4982951;28;20044;-83
2023/01/16 18:20:06;;;;;;;;;;;4.90;99.90;;;;;;4983092;28;20020;-84
2023/01/16 18:22:34;;;;;;;55.88;27.13;;;4.90;99.90;;;;;;4982854;28;19895;-84
2023/01/16 18:25:01;;;;;;;70.43;32.00;;;4.80;99.90;;;;;;4982830;28;20067;-83
2023/01/16 18:27:30;;;;;;;73.47;35.80;;;4.90;99.90;;;;;;4982736;28;20031;-84
2023/01/16 18:29:56;;;;;;;97.13;50.92;;;4.80;99.90;;;;;;4982717;28;20019;-84
2023/01/16 18:32:25;;;;;;;;;;;4.80;99.90;;;;;;4982833;28;20046;-84
2023/01/16 18:34:57;;;;;;;93.68;41.25;;;4.90;99.90;;;;;;4982501;28;19895;-83
2023/01/16 18:37:37;;;;;;;93.28;45.95;;;4.90;99.90;;;;;;4966065;28;20107;-84
2023/01/16 19:02:44;;;;;;;93.85;42.92;;;4.90;99.90;;;;;;4982087;28;20043;-84
2023/01/16 19:05:11;;;;;;;86.43;42.00;;;5.10;99.90;;;;;;4965422;28;20020;-82
2023/01/16 19:07:43;;;;;;;101.72;45.10;;;5.00;99.90;;;;;;4964200;28;20039;-82
2023/01/16 19:10:14;;;;;;;107.45;46.92;;;5.00;99.90;;;;;;4965581;28;20023;-83
2023/01/16 19:12:40;;;;;;;94.38;40.65;;;5.10;99.90;;;;;;4965415;28;20016;-83
2023/01/16 19:15:07;;;;;;;105.68;49.08;;;5.00;99.90;;;;;;4982072;28;20015;-81
2023/01/16 19:17:33;;;;;;;97.57;43.47;;;5.10;99.90;;;;;;4981924;28;20031;-81
2023/01/16 19:20:00;;;;;;;101.75;42.85;;;5.10;99.90;;;;;;4965400;28;20039;-81
2023/01/16 19:22:26;;;;;;;115.03;45.83;;;5.10;99.90;;;;;;4981814;28;20008;-80
2023/01/16 19:24:52;;;;;;;101.85;45.85;;;5.00;99.90;;;;;;4981423;28;20020;-81
2023/01/16 19:27:21;;;;;;;;;;;5.00;99.90;;;;;;4982068;28;20075;-84
2023/01/16 19:29:47;;;;;;;95.13;41.58;;;5.10;99.90;;;;;;4965234;28;19967;-82
2023/01/16 19:48:03;;;;;;;101.55;44.25;;;5.00;99.90;;;;;;4979766;28;20022;-84
2023/01/16 19:50:31;;;;;;;97.80;44.95;;;5.00;99.90;;;;;;4979902;29;20050;-84
2023/01/16 19:52:57;;;;;;;95.13;45.13;;;5.00;99.90;;;;;;4979374;29;20041;-84
2023/01/16 19:55:23;;;;;;;119.97;59.33;;;5.10;99.90;;;;;;4962924;29;20047;-83
2023/01/16 19:57:49;;;;;;;101.30;48.38;;;5.10;99.90;;;;;;4979070;29;20027;-84
2023/01/16 20:00:16;;;;;;;109.28;47.55;;;5.00;99.90;;;;;;4963205;29;20015;-84
2023/01/16 20:02:42;;;;;;;112.72;52.40;;;5.00;99.90;;;;;;4962348;28;20017;-84
2023/01/16 20:05:08;;;;;;;;;;;5.00;99.90;;;;;;4980217;29;20012;-84
2023/01/16 20:07:34;;;;;;;110.10;50.42;;;5.10;99.90;;;;;;4962959;29;19894;-84
2023/01/16 20:10:00;;;;;;;129.07;58.47;;;5.10;99.90;;;;;;4962886;29;20024;-84
2023/01/16 20:12:26;;;;;;;230.32;131.88;;;4.90;99.90;;;;;;4979124;29;20039;-84
2023/01/16 20:14:57;;;;;;;170.52;95.75;;;5.00;99.90;;;;;;4979299;29;20075;-83
2023/01/16 20:17:25;;;;;;;122.05;59.63;;;5.00;99.90;;;;;;4962723;28;20027;-84
2023/01/16 20:19:57;;;;;;;105.40;51.38;;;5.10;99.90;;;;;;4979455;28;20000;-84
2023/01/16 20:22:26;;;;;;;104.20;50.13;;;5.00;99.90;;;;;;4962754;28;20133;-84
2023/01/16 20:24:53;;;;;;;118.47;65.93;;;5.00;99.90;;;;;;4979585;29;20026;-85
2023/01/16 20:27:19;;;;;;;102.25;54.30;;;5.20;99.90;;;;;;4964279;28;20042;-82
2023/01/16 20:29:49;;;;;;;106.03;55.80;;;5.00;99.90;;;;;;4980830;28;20035;-84
2023/01/16 20:51:10;;;;;;;71.47;34.88;;;5.00;99.90;;;;;;5594929;23;20039;-83
2023/01/16 20:53:37;;;;;;;70.38;34.35;;;5.00;99.90;;;;;;4967883;28;20030;-81
2023/01/16 20:56:04;;;;;;;60.85;32.45;;;4.90;99.90;;;;;;4968019;29;20057;-84
2023/01/16 20:58:33;;;;;;;66.85;33.78;;;5.10;99.90;;;;;;4984462;28;20015;-82
2023/01/16 21:01:04;;;;;;;70.53;35.28;;;5.00;99.90;;;;;;4967496;28;20027;-84
2023/01/16 21:03:30;;;;;;;69.35;39.20;;;4.90;99.90;;;;;;4967514;28;20086;-83
2023/01/16 21:05:57;;;;;;;74.55;37.38;;;5.00;99.90;;;;;;4967229;29;20031;-83
2023/01/16 21:08:24;;;;;;;68.25;35.63;;;4.90;99.90;;;;;;4984341;28;20015;-83
2023/01/16 21:10:50;;;;;;;66.95;33.72;;;4.90;99.90;;;;;;4984070;28;20042;-82
2023/01/16 21:21:49;;;;;;;70.72;39.03;;;4.90;99.90;;;;;;4984028;28;20018;-84
2023/01/16 21:24:16;;;;;;;72.70;39.10;;;5.00;99.90;;;;;;4983944;28;20036;-83
2023/01/16 21:26:42;;;;;;;80.47;46.50;;;4.90;99.90;;;;;;4983890;28;20014;-83
2023/01/16 21:29:09;;;;;;;;;;;4.90;99.90;;;;;;4983138;28;20031;-85
2023/01/16 21:31:34;;;;;;;84.75;41.47;;;4.80;99.90;;;;;;4966392;29;19930;-85
2023/01/16 21:34:00;;;;;;;;;;;4.90;99.90;;;;;;4966709;29;20096;-84
2023/01/16 21:36:26;;;;;;;67.60;36.22;;;4.90;99.90;;;;;;4966013;29;19911;-84
2023/01/16 21:38:51;;;;;;;;;;;5.00;99.90;;;;;;4982802;28;20027;-84
2023/01/16 21:41:17;;;;;;;71.95;36.63;;;4.90;99.90;;;;;;4965733;29;19974;-84
2023/01/16 21:46:32;;;;;;;78.20;41.63;;;4.90;99.90;;;;;;4982343;29;19966;-83
2023/01/16 21:48:59;;;;;;;64.85;33.50;;;5.00;99.90;;;;;;4981974;28;20039;-84
2023/01/16 21:51:30;;;;;;;58.15;29.23;;;4.90;99.90;;;;;;4965136;29;20053;-83
2023/01/16 21:53:55;;;;;;;60.03;32.70;;;4.90;99.90;;;;;;4981704;28;20030;-83
2023/01/16 21:56:21;;;;;;;;;;;4.90;99.90;;;;;;4965685;29;20011;-83
2023/01/16 21:58:47;;;;;;;48.28;25.70;;;4.80;99.90;;;;;;4965415;29;19895;-85
2023/01/16 22:01:13;;;;;;;;;;;5.00;99.90;;;;;;4982234;28;20027;-84
2023/01/16 22:03:39;;;;;;;53.90;26.33;;;4.90;99.90;;;;;;4982079;29;19901;-83
2023/01/16 22:06:09;;;;;;;;;;;4.90;99.90;;;;;;4982500;28;20011;-83
2023/01/16 22:08:36;;;;;;;45.55;22.83;;;4.80;99.90;;;;;;4982154;28;19895;-83
2023/01/16 22:19:32;;;;;;;38.42;22.17;;;4.80;99.90;;;;;;4982542;28;20055;-84
2023/01/16 22:21:59;;;;;;;31.83;19.40;;;4.80;99.90;;;;;;4965481;29;20019;-85
2023/01/16 22:24:25;;;;;;;33.22;19.55;;;4.80;99.90;;;;;;4965708;29;20048;-84
2023/01/16 22:26:51;;;;;;;33.08;20.38;;;4.80;99.90;;;;;;4982073;29;20072;-84
2023/01/16 22:29:17;;;;;;;;;;;4.80;99.90;;;;;;4965472;29;20027;-85
2023/01/16 22:31:43;;;;;;;33.30;18.38;;;4.70;99.90;;;;;;4981543;28;19902;-84
2023/01/16 22:34:08;;;;;;;;;;;4.80;99.90;;;;;;4965354;29;20023;-85
2023/01/16 22:36:34;;;;;;;37.75;20.42;;;4.80;99.90;;;;;;4981870;29;19891;-84
2023/01/16 22:39:00;;;;;;;34.53;19.73;;;4.80;99.90;;;;;;4981393;28;20027;-84
2023/01/16 22:41:26;;;;;;;;;;;4.80;99.90;;;;;;4965593;29;20050;-85
2023/01/16 22:46:36;;;;;;;42.47;23.13;;;4.70;99.90;;;;;;4981666;28;20010;-84
2023/01/16 22:49:03;;;;;;;;;;;4.70;99.90;;;;;;4981853;28;20032;-84
2023/01/16 22:51:30;;;;;;;53.75;27.75;;;4.80;99.90;;;;;;4981205;28;19922;-84
2023/01/16 22:53:57;;;;;;;43.42;23.90;;;5.10;99.90;;;;;;4981379;28;20030;-84
2023/01/16 22:56:24;;;;;;;45.10;25.83;;;4.80;99.90;;;;;;4964637;29;20015;-85
2023/01/16 22:58:50;;;;;;;49.22;27.40;;;4.90;99.90;;;;;;4964191;29;20027;-84
2023/01/16 23:01:18;;;;;;;50.80;26.13;;;4.90;99.90;;;;;;4964288;29;20059;-83
2023/01/16 23:03:44;;;;;;;49.33;27.13;;;4.90;99.90;;;;;;4981267;29;20043;-84
2023/01/16 23:06:12;;;;;;;56.97;30.77;;;4.90;99.90;;;;;;4980677;29;20030;-84
2023/01/16 23:08:38;;;;;;;51.08;29.63;;;4.80;99.90;;;;;;4964462;29;20055;-84
2023/01/16 23:11:24;;;;;;;53.80;27.42;;;4.90;99.90;;;;;;4981039;29;20022;-85
2023/01/16 23:13:56;;;;;;;56.85;29.25;;;4.80;99.90;;;;;;4979915;28;20023;-84
2023/01/16 23:16:22;;;;;;;51.45;29.35;;;4.90;99.90;;;;;;4980832;29;20027;-84
2023/01/16 23:18:47;;;;;;;;;;;4.90;99.90;;;;;;4964756;29;20043;-84
2023/01/16 23:21:15;;;;;;;50.92;31.13;;;4.90;99.90;;;;;;4981323;28;19895;-84
2023/01/16 23:23:41;;;;;;;52.35;29.08;;;4.90;99.90;;;;;;4981157;28;20014;-84
2023/01/16 23:26:07;;;;;;;;;;;4.90;99.90;;;;;;4981176;28;20039;-85
2023/01/16 23:28:33;;;;;;;57.33;30.20;;;4.90;99.90;;;;;;4964527;28;19895;-83
2023/01/16 23:31:03;;;;;;;;;;;4.90;99.90;;;;;;4981398;28;20027;-84
2023/01/16 23:33:29;;;;;;;56.13;28.52;;;4.90;99.90;;;;;;4964714;28;19902;-84
2023/01/16 23:35:55;;;;;;;;;;;4.80;99.90;;;;;;4964652;28;20038;-84
2023/01/16 23:38:21;;;;;;;68.60;33.83;;;5.00;99.90;;;;;;4980587;28;19894;-85
2023/01/16 23:40:46;;;;;;;;;;;4.80;99.90;;;;;;4965308;28;20019;-80
2023/01/16 23:45:56;;;;;;;75.95;36.22;;;4.70;99.90;;;;;;4980227;28;20067;-85
2023/01/16 23:48:22;;;;;;;;;;;4.80;99.90;;;;;;4962661;29;20023;-84
2023/01/16 23:50:48;;;;;;;71.20;34.40;;;4.80;99.90;;;;;;4979459;28;19922;-84
2023/01/16 23:53:13;;;;;;;;;;;4.70;99.90;;;;;;4964403;29;20043;-84
2023/01/16 23:55:39;;;;;;;64.93;31.25;;;4.80;99.90;;;;;;4979735;28;19918;-84
2023/01/16 23:58:05;;;;;;;;;;;4.90;99.90;;;;;;4963487;29;20019;-84
